Hopkins, Missouri
Current Conditions -  °F | °C
As of 8:35 AM on Friday 28 Nov 2014 (Local Time) from KICL Reporting Station
Clear Clear  
Wind Chill: 30°   Ceiling: Unl
Heat Index: 30°   Visibility: 10mi
Dew Point: 25°   Wind: 3mph
Humidity: 80%   Direction: 180°S
Pressure: 29.95"   Gusts: NA
Location:  40.55°N, 94.82°W
Report Text: KICL 281435Z AUTO 18003KT 10SM CLR M01/M04 A2995 RMK AO2
Loading
Personal Weather Stations






























Interactive Weather Map New forecast layout! Learn more

10-Day Weather Forecast

Advertisements
Track Severe Weather on mobile